Time;durP1;ratioP1;P1;durP2;ratioP2;P2;SDS_P1;SDS_P2;PMS_P1;PMS_P2;Temp;Humidity;BMP_temperature;BMP_pressure;BME280_temperature;BME280_humidity;BME280_pressure;Samples;Min_cycle;Max_cycle;Signal;HPM_P1;HPM_P2
2021/10/15 00:00:45;;;;;;;24.30;14.18;;;;;;;6.69;65.80;101057.87;1751888;81;20950;-56
2021/10/15 00:03:12;;;;;;;28.50;14.68;;;;;;;6.70;65.82;101053.70;1754460;81;21008;-55
2021/10/15 00:05:38;;;;;;;28.35;13.93;;;;;;;6.70;65.83;101056.36;1756166;81;21007;-55
2021/10/15 00:08:05;;;;;;;28.47;13.85;;;;;;;6.69;65.82;101051.20;1752050;81;21203;-56
2021/10/15 00:10:32;;;;;;;26.45;14.10;;;;;;;6.68;65.82;101053.02;1751303;81;21022;-54
2021/10/15 00:12:58;;;;;;;24.00;14.28;;;;;;;6.68;65.80;101050.87;1753103;79;21051;-54
2021/10/15 00:15:25;;;;;;;22.22;13.95;;;;;;;6.66;65.85;101047.87;1752353;81;21002;-55
2021/10/15 00:17:51;;;;;;;25.23;14.15;;;;;;;6.64;65.87;101046.38;1752562;81;21003;-55
2021/10/15 00:20:18;;;;;;;23.92;13.20;;;;;;;6.60;65.89;101038.43;1754682;81;21126;-55
2021/10/15 00:22:45;;;;;;;27.20;14.23;;;;;;;6.58;65.95;101043.94;1752236;81;20924;-55
2021/10/15 00:25:11;;;;;;;25.92;14.13;;;;;;;6.55;65.94;101038.11;1751314;81;20966;-55
2021/10/15 00:27:38;;;;;;;24.47;13.32;;;;;;;6.49;65.94;101044.96;1752095;81;21022;-55
2021/10/15 00:30:05;;;;;;;24.87;13.25;;;;;;;6.40;66.19;101042.84;1752629;81;21122;-55
2021/10/15 00:32:33;;;;;;;24.02;14.45;;;;;;;6.37;66.36;101039.20;1752201;80;21138;-56
2021/10/15 00:34:59;;;;;;;24.77;14.18;;;;;;;6.36;66.52;101041.55;1752134;81;20868;-57
2021/10/15 00:37:26;;;;;;;25.80;13.80;;;;;;;6.36;66.56;101033.56;1752733;81;21104;-57
2021/10/15 00:39:52;;;;;;;22.42;13.38;;;;;;;6.38;66.52;101032.05;1754880;81;21082;-54
2021/10/15 00:42:19;;;;;;;22.77;12.50;;;;;;;6.38;66.46;101042.20;1753352;81;20975;-54
2021/10/15 00:44:45;;;;;;;23.02;14.07;;;;;;;6.38;66.41;101045.38;1752138;80;21521;-57
2021/10/15 00:47:12;;;;;;;21.70;13.43;;;;;;;6.37;66.40;101035.72;1755377;81;20908;-56
2021/10/15 00:49:38;;;;;;;26.15;14.03;;;;;;;6.36;66.43;101036.70;1753480;81;21047;-56
2021/10/15 00:52:08;;;;;;;21.25;14.25;;;;;;;6.35;66.47;101035.07;1751102;81;20998;-55
2021/10/15 00:54:34;;;;;;;23.22;14.47;;;;;;;6.34;66.51;101033.41;1751131;81;21109;-56
2021/10/15 00:57:01;;;;;;;26.50;13.68;;;;;;;6.33;66.53;101033.91;1731957;81;21221;-55
2021/10/15 00:59:27;;;;;;;20.60;12.43;;;;;;;6.33;66.65;101023.27;1753793;81;20987;-56
2021/10/15 01:01:54;;;;;;;22.22;13.15;;;;;;;6.35;66.68;101022.58;1754870;81;21473;-55
2021/10/15 01:04:21;;;;;;;26.40;12.82;;;;;;;6.36;66.76;101025.58;1755144;80;21494;-56
2021/10/15 01:06:48;;;;;;;22.52;12.95;;;;;;;6.37;66.71;101024.55;1749852;81;21003;-55
2021/10/15 01:09:14;;;;;;;29.90;14.78;;;;;;;6.37;66.62;101031.72;1751918;80;21147;-56
2021/10/15 01:11:43;;;;;;;24.57;13.68;;;;;;;6.31;66.62;101034.57;1753175;81;20892;-55
2021/10/15 01:14:09;;;;;;;22.20;14.28;;;;;;;6.24;66.75;101034.45;1745801;81;21543;-55
2021/10/15 01:16:37;;;;;;;23.27;14.53;;;;;;;6.20;66.89;101030.47;1731025;81;21026;-56
2021/10/15 01:19:04;;;;;;;28.60;15.20;;;;;;;6.18;66.90;101031.64;1750866;81;21627;-55
2021/10/15 01:21:30;;;;;;;26.62;15.08;;;;;;;6.15;67.00;101035.47;1752501;81;21089;-56
2021/10/15 01:23:58;;;;;;;23.85;14.43;;;;;;;6.12;67.09;101035.34;1752901;80;21512;-56
2021/10/15 01:26:24;;;;;;;23.65;13.83;;;;;;;6.11;67.17;101031.48;1753035;81;21408;-56
2021/10/15 01:28:53;;;;;;;23.20;13.68;;;;;;;6.06;67.16;101032.00;1752774;81;20935;-54
2021/10/15 01:31:20;;;;;;;22.60;13.38;;;;;;;6.00;67.29;101029.22;1752685;81;20963;-55
2021/10/15 01:33:47;;;;;;;26.12;15.05;;;;;;;5.95;67.42;101028.38;1752827;80;21074;-55
2021/10/15 01:36:14;;;;;;;28.45;13.20;;;;;;;5.94;67.54;101027.52;1750675;81;21577;-55
2021/10/15 01:38:40;;;;;;;25.35;14.87;;;;;;;5.94;67.60;101028.03;1754881;81;20944;-56
2021/10/15 01:41:08;;;;;;;24.47;14.25;;;;;;;5.96;67.63;101028.20;1757574;80;21015;-55
2021/10/15 01:43:35;;;;;;;24.02;13.95;;;;;;;5.99;67.65;101030.21;1751270;81;21548;-56
2021/10/15 01:46:02;;;;;;;18.25;12.23;;;;;;;6.00;67.66;101022.05;1751674;81;21956;-54
2021/10/15 01:48:28;;;;;;;21.35;12.37;;;;;;;6.02;67.59;101024.06;1751174;81;21002;-55
2021/10/15 01:50:57;;;;;;;26.37;13.83;;;;;;;6.03;67.51;101020.37;1753386;81;21002;-56
2021/10/15 01:53:23;;;;;;;22.52;12.93;;;;;;;6.04;67.46;101022.55;1755257;81;20892;-55
2021/10/15 01:55:50;;;;;;;21.85;12.73;;;;;;;6.03;67.36;101019.05;1752944;81;20971;-56
2021/10/15 01:58:19;;;;;;;24.57;13.10;;;;;;;6.02;67.31;101017.89;1751116;81;21292;-56
2021/10/15 02:00:46;;;;;;;22.67;12.20;;;;;;;6.01;67.34;101018.40;1749735;80;21011;-56
2021/10/15 02:03:16;;;;;;;22.02;12.98;;;;;;;5.97;67.33;101017.08;1753185;81;21580;-56
2021/10/15 02:05:43;;;;;;;21.02;12.88;;;;;;;5.96;67.51;101024.69;1752964;81;20939;-55
2021/10/15 02:08:11;;;;;;;25.23;13.47;;;;;;;5.92;67.65;101030.05;1753290;81;21568;-56
2021/10/15 02:10:38;;;;;;;20.50;12.13;;;;;;;5.92;67.65;101030.05;1754806;81;21345;-55
2021/10/15 02:13:06;;;;;;;25.90;15.25;;;;;;;5.90;67.70;101031.55;1751760;81;21031;-55
2021/10/15 02:15:32;;;;;;;22.20;13.72;;;;;;;5.85;67.74;101032.55;1752892;81;21451;-56
2021/10/15 02:17:59;;;;;;;23.87;13.25;;;;;;;5.79;67.85;101035.39;1751224;80;20948;-55
2021/10/15 02:20:25;;;;;;;25.43;15.40;;;;;;;5.74;68.02;101032.42;1752511;81;21541;-56
2021/10/15 02:22:52;;;;;;;27.10;16.25;;;;;;;5.73;68.17;101040.58;1752129;81;21138;-55
2021/10/15 02:25:19;;;;;;;27.30;16.15;;;;;;;5.71;68.36;101040.75;1752724;81;21051;-56
2021/10/15 02:27:46;;;;;;;32.75;16.55;;;;;;;5.69;68.56;101044.57;1752086;81;20935;-56
2021/10/15 02:30:14;;;;;;;30.43;17.02;;;;;;;5.63;68.73;101039.93;1749616;81;21016;-56
2021/10/15 02:32:41;;;;;;;34.70;17.25;;;;;;;5.61;68.91;101034.27;1754383;81;21006;-55
2021/10/15 02:35:08;;;;;;;33.60;17.98;;;;;;;5.62;69.03;101041.73;1752429;81;21464;-56
2021/10/15 02:37:36;;;;;;;29.02;17.42;;;;;;;5.62;69.04;101035.09;1751167;80;20983;-55
2021/10/15 02:40:04;;;;;;;29.05;17.37;;;;;;;5.59;69.07;101032.30;1754010;80;21437;-56
2021/10/15 02:42:30;;;;;;;29.67;17.00;;;;;;;5.58;69.22;101032.43;1755326;81;20964;-56
2021/10/15 02:44:57;;;;;;;29.15;16.35;;;;;;;5.59;69.33;101032.30;1752870;81;21560;-56
2021/10/15 02:47:23;;;;;;;29.18;16.93;;;;;;;5.62;69.39;101028.44;1751015;81;21096;-55
2021/10/15 02:49:50;;;;;;;28.45;17.25;;;;;;;5.66;69.34;101028.95;1752415;80;20955;-55
2021/10/15 02:52:18;;;;;;;29.25;17.42;;;;;;;5.70;69.20;101024.95;1751861;80;20947;-56
2021/10/15 02:54:44;;;;;;;25.90;16.30;;;;;;;5.71;69.04;101030.59;1752738;80;21438;-56
2021/10/15 02:57:11;;;;;;;27.98;15.60;;;;;;;5.71;68.94;101025.27;1753004;81;20995;-55
2021/10/15 02:59:37;;;;;;;24.60;16.05;;;;;;;5.72;68.86;101029.59;1754584;81;21135;-54
2021/10/15 03:02:03;;;;;;;30.23;17.10;;;;;;;5.71;68.76;101022.60;1751096;80;20947;-55
2021/10/15 03:04:30;;;;;;;28.47;16.52;;;;;;;5.71;68.64;101025.27;1754616;81;21034;-55
2021/10/15 03:06:56;;;;;;;29.95;16.50;;;;;;;5.69;68.54;101026.77;1752819;80;21015;-55
2021/10/15 03:09:22;;;;;;;32.40;16.70;;;;;;;5.70;68.52;101032.94;1752899;81;21007;-55
2021/10/15 03:11:52;;;;;;;25.92;15.63;;;;;;;5.69;68.41;101032.59;1754804;80;21809;-55
2021/10/15 03:14:18;;;;;;;30.05;16.00;;;;;;;5.68;68.35;101034.41;1749116;80;21651;-56
2021/10/15 03:16:46;;;;;;;30.48;16.62;;;;;;;5.67;68.32;101040.75;1756224;80;21006;-55
2021/10/15 03:19:12;;;;;;;30.20;16.35;;;;;;;5.66;68.31;101037.75;1751184;81;21010;-55
2021/10/15 03:21:38;;;;;;;27.27;16.77;;;;;;;5.65;68.27;101044.06;1750454;80;20995;-55
2021/10/15 03:24:06;;;;;;;26.23;15.90;;;;;;;5.64;68.25;101041.57;1751253;81;21135;-56
2021/10/15 03:26:33;;;;;;;30.85;17.07;;;;;;;5.61;68.31;101038.77;1753969;80;20990;-55
2021/10/15 03:28:59;;;;;;;32.33;16.45;;;;;;;5.59;68.40;101036.77;1750662;80;21086;-55
2021/10/15 03:31:26;;;;;;;25.08;15.40;;;;;;;5.59;68.48;101042.08;1752544;81;20974;-55
2021/10/15 03:33:52;;;;;;;26.68;16.45;;;;;;;5.58;68.56;101046.58;1751929;81;21039;-56
2021/10/15 03:36:19;;;;;;;27.60;16.95;;;;;;;5.58;68.57;101049.24;1751964;80;21073;-55
2021/10/15 03:38:45;;;;;;;31.15;17.85;;;;;;;5.60;68.55;101047.74;1748739;80;20979;-57
2021/10/15 03:41:12;;;;;;;31.37;16.95;;;;;;;5.60;68.55;101038.43;1751951;81;20979;-57
2021/10/15 03:43:38;;;;;;;30.20;17.40;;;;;;;5.60;68.46;101044.57;1752719;80;21007;-56
2021/10/15 03:46:05;;;;;;;24.82;15.78;;;;;;;5.58;68.30;101047.06;1752589;81;20952;-56
2021/10/15 03:48:31;;;;;;;27.55;16.80;;;;;;;5.51;68.32;101040.78;1752648;80;22418;-56
2021/10/15 03:50:58;;;;;;;32.42;16.77;;;;;;;5.48;68.26;101046.41;1751800;80;20972;-55
2021/10/15 03:53:24;;;;;;;36.93;18.77;;;;;;;5.44;68.28;101048.59;1751033;80;21053;-55
2021/10/15 03:55:51;;;;;;;30.85;18.12;;;;;;;5.42;68.27;101044.77;1751232;81;20959;-55
2021/10/15 03:58:18;;;;;;;26.95;16.05;;;;;;;5.42;68.38;101046.09;1754031;80;21087;-56
2021/10/15 04:00:44;;;;;;;30.88;17.67;;;;;;;5.42;68.50;101044.77;1753724;80;21136;-56
2021/10/15 04:03:11;;;;;;;31.62;16.87;;;;;;;5.44;68.58;101041.94;1750609;80;20980;-55
2021/10/15 04:05:37;;;;;;;29.77;16.80;;;;;;;5.46;68.60;101052.41;1752148;80;20959;-56
2021/10/15 04:08:04;;;;;;;26.77;16.85;;;;;;;5.47;68.52;101053.57;1751708;80;20998;-56
2021/10/15 04:10:31;;;;;;;30.97;17.05;;;;;;;5.46;68.46;101044.43;1751282;80;21059;-56
2021/10/15 04:12:57;;;;;;;33.80;17.82;;;;;;;5.42;68.51;101051.41;1751440;80;21704;-56
2021/10/15 04:15:23;;;;;;;29.48;17.95;;;;;;;5.38;68.54;101053.25;1751216;80;20880;-56
2021/10/15 04:17:50;;;;;;;34.27;20.57;;;;;;;5.35;68.66;101056.25;1754281;81;21003;-55
2021/10/15 04:20:17;;;;;;;30.88;18.10;;;;;;;5.33;68.80;101062.21;1752082;80;21497;-56
2021/10/15 04:22:43;;;;;;;29.82;18.27;;;;;;;5.32;68.85;101059.24;1753750;80;20892;-55
2021/10/15 04:25:09;;;;;;;30.32;18.05;;;;;;;5.35;68.85;101059.73;1752684;80;21736;-55
2021/10/15 04:27:36;;;;;;;31.75;18.95;;;;;;;5.37;68.76;101054.23;1753491;81;20884;-57
2021/10/15 04:30:04;;;;;;;28.00;18.30;;;;;;;5.39;68.72;101057.07;1756406;81;20911;-55
2021/10/15 04:32:32;;;;;;;32.80;17.42;;;;;;;5.41;68.65;101060.38;1749988;81;20916;-55
2021/10/15 04:34:59;;;;;;;32.70;18.75;;;;;;;5.42;68.55;101059.91;1754587;81;20916;-56
2021/10/15 04:37:25;;;;;;;34.38;18.40;;;;;;;5.43;68.50;101062.88;1754437;81;21897;-56
2021/10/15 04:39:51;;;;;;;27.45;17.00;;;;;;;5.44;68.47;101060.05;1752105;81;20923;-55
2021/10/15 04:42:19;;;;;;;31.52;17.25;;;;;;;5.47;68.42;101061.55;1752557;81;20857;-56
2021/10/15 04:44:46;;;;;;;28.52;17.50;;;;;;;5.51;68.34;101056.74;1754364;80;20880;-56
2021/10/15 04:47:12;;;;;;;30.92;18.50;;;;;;;5.55;68.27;101059.38;1751332;81;20943;-56
2021/10/15 04:49:40;;;;;;;30.37;18.73;;;;;;;5.56;68.11;101061.04;1750543;81;21139;-56
2021/10/15 04:52:07;;;;;;;30.08;18.67;;;;;;;5.54;67.89;101061.21;1753507;81;20923;-56
2021/10/15 04:54:34;;;;;;;31.12;17.77;;;;;;;5.45;67.84;101064.89;1753010;81;20943;-56
2021/10/15 04:57:01;;;;;;;26.02;17.05;;;;;;;5.36;67.99;101067.19;1753625;81;20907;-56
2021/10/15 04:59:28;;;;;;;27.55;17.00;;;;;;;5.29;68.28;101072.36;1754047;81;20935;-57
2021/10/15 05:01:54;;;;;;;29.18;16.97;;;;;;;5.57;68.71;101077.34;1750342;81;21088;-55
2021/10/15 05:04:20;;;;;;;27.02;15.85;;;;;;;6.45;67.98;101072.47;1753195;80;20896;-55
2021/10/15 05:06:47;;;;;;;26.52;15.80;;;;;;;7.65;66.06;101074.28;1753963;81;21418;-55
2021/10/15 05:09:26;;;;;;;21.52;14.13;;;;;;;8.92;63.00;101071.94;1753209;81;20928;-55
2021/10/15 05:11:46;;;;;;;20.82;13.72;;;;;;;10.10;59.58;101072.27;1750600;81;21467;-56
2021/10/15 05:17:18;;;;;;;18.40;12.58;;;;;;;12.61;51.51;101065.28;1797563;79;22839;-56
2021/10/15 05:19:44;;;;;;;17.57;12.95;;;;;;;13.41;48.63;101072.88;1770749;80;21529;-56
2021/10/15 05:22:10;;;;;;;22.37;13.72;;;;;;;14.24;46.39;101066.77;1773249;80;21156;-56
2021/10/15 05:24:37;;;;;;;18.87;12.73;;;;;;;14.98;44.05;101067.98;1771557;80;21485;-57
2021/10/15 05:27:04;;;;;;;20.35;12.75;;;;;;;15.72;42.17;101065.45;1773412;80;21010;-56
2021/10/15 05:29:31;;;;;;;15.53;11.85;;;;;;;16.40;40.57;101064.48;1771813;80;20994;-56
2021/10/15 05:31:57;;;;;;;18.37;13.08;;;;;;;17.03;39.12;101065.97;1768863;80;21033;-56
2021/10/15 05:34:24;;;;;;;19.15;12.35;;;;;;;17.63;37.79;101071.27;1771224;80;21206;-56
2021/10/15 05:36:50;;;;;;;16.50;11.70;;;;;;;18.21;36.30;101073.17;1771749;80;20947;-56
2021/10/15 05:39:17;;;;;;;17.87;12.23;;;;;;;18.72;35.26;101078.39;1775231;80;20923;-56
2021/10/15 05:41:44;;;;;;;20.27;13.62;;;;;;;19.17;34.22;101078.59;1772037;80;20888;-56
2021/10/15 05:44:11;;;;;;;15.75;11.43;;;;;;;19.54;33.62;101080.51;1772209;80;20971;-56
2021/10/15 05:46:38;;;;;;;16.07;11.40;;;;;;;19.97;32.90;101081.89;1771911;80;21163;-56
2021/10/15 05:49:07;;;;;;;15.60;11.78;;;;;;;20.45;32.09;101083.18;1772070;80;20951;-57
2021/10/15 05:51:36;;;;;;;18.10;11.93;;;;;;;20.91;31.55;101084.70;1770751;80;20991;-56
2021/10/15 05:54:02;;;;;;;;;;;;;;;21.43;30.88;101089.62;1771411;80;21525;-57
2021/10/15 05:57:18;;;;;;;17.40;12.18;;;;;;;21.97;30.25;101085.48;1770668;80;20438;-56
2021/10/15 05:59:03;;;;;;;;;;;;;;;22.44;29.31;101088.89;1752893;80;21081;-56
2021/10/15 06:01:27;;;;;;;;;;;;;;;22.76;28.49;101088.97;1771653;80;20122;-57
2021/10/15 06:14:00;;;;;;;14.43;11.93;;;;;;;23.30;28.05;101086.45;1773099;80;21030;-58
2021/10/15 06:14:56;;;;;;;12.88;10.38;;;;;;;23.66;27.43;101085.58;1741527;80;20884;-56
2021/10/15 06:17:23;;;;;;;17.23;11.78;;;;;;;23.67;27.29;101092.66;1728850;82;21513;-58
2021/10/15 06:19:53;;;;;;;16.45;10.50;;;;;;;23.62;27.62;101089.42;1695628;84;21027;-56
2021/10/15 06:22:25;;;;;;;15.48;11.18;;;;;;;23.68;27.69;101088.02;1683730;84;21050;-57
2021/10/15 06:24:55;;;;;;;14.95;10.55;;;;;;;23.78;27.62;101090.09;1681165;84;20935;-57
2021/10/15 06:27:23;;;;;;;17.00;11.03;;;;;;;23.87;27.67;101092.23;1681101;84;21030;-56
2021/10/15 06:29:50;;;;;;;13.78;10.78;;;;;;;23.97;27.45;101089.39;1681026;84;21584;-56
2021/10/15 06:32:18;;;;;;;12.30;10.63;;;;;;;23.96;27.26;101089.11;1679231;84;21031;-56
2021/10/15 06:34:44;;;;;;;13.83;10.82;;;;;;;23.86;27.68;101087.30;1679898;84;20960;-57
2021/10/15 06:37:11;;;;;;;15.30;11.15;;;;;;;23.84;27.75;101088.69;1679414;84;21179;-56
2021/10/15 06:39:38;;;;;;;14.78;11.80;;;;;;;23.74;27.91;101088.23;1680605;84;21545;-56
2021/10/15 06:42:04;;;;;;;15.80;11.28;;;;;;;23.60;28.30;101090.28;1677684;84;21007;-55
2021/10/15 06:44:32;;;;;;;15.18;12.37;;;;;;;23.29;28.66;101099.85;1681727;84;21011;-57
2021/10/15 06:46:58;;;;;;;16.07;11.73;;;;;;;22.53;29.48;101101.42;1683368;84;21599;-55
2021/10/15 06:49:25;;;;;;;15.15;12.03;;;;;;;21.40;30.98;101097.55;1681113;84;21160;-57
2021/10/15 06:51:51;;;;;;;18.98;13.00;;;;;;;20.46;32.39;101101.16;1680346;84;21022;-56
2021/10/15 06:54:18;;;;;;;17.80;13.03;;;;;;;19.59;33.83;101104.19;1681504;84;21454;-56
2021/10/15 06:56:45;;;;;;;16.48;12.30;;;;;;;18.85;35.26;101107.86;1681812;84;20924;-58
2021/10/15 06:59:11;;;;;;;20.45;12.73;;;;;;;18.20;36.65;101106.28;1682607;84;20967;-56
2021/10/15 07:01:38;;;;;;;19.52;13.20;;;;;;;17.65;38.12;101104.37;1680604;84;21882;-55
2021/10/15 07:04:04;;;;;;;19.02;13.38;;;;;;;17.21;39.17;101112.32;1678436;84;20876;-55
2021/10/15 07:06:32;;;;;;;19.62;13.65;;;;;;;16.79;39.99;101116.14;1681651;84;21030;-57
2021/10/15 07:09:00;;;;;;;22.87;14.35;;;;;;;16.39;40.98;101111.03;1680526;84;21015;-56
2021/10/15 07:11:27;;;;;;;19.67;14.18;;;;;;;16.08;41.90;101112.26;1680139;84;21006;-56
2021/10/15 07:13:53;;;;;;;23.73;15.60;;;;;;;15.79;42.47;101114.03;1678965;84;21201;-56
2021/10/15 07:16:20;;;;;;;22.60;14.70;;;;;;;15.49;43.33;101117.09;1677036;84;21048;-56
2021/10/15 07:18:47;;;;;;;23.20;15.03;;;;;;;15.24;43.85;101118.08;1675175;85;21068;-56
2021/10/15 07:21:13;;;;;;;21.15;14.28;;;;;;;15.03;44.47;101119.44;1674244;85;20961;-57
2021/10/15 07:23:41;;;;;;;22.55;15.58;;;;;;;14.87;44.93;101111.98;1676637;85;21020;-57
2021/10/15 07:26:07;;;;;;;23.80;15.48;;;;;;;14.74;45.54;101116.19;1676090;85;21177;-57
2021/10/15 07:28:34;;;;;;;26.93;15.68;;;;;;;14.63;45.86;101117.25;1673656;85;21502;-56
2021/10/15 07:31:00;;;;;;;24.30;15.88;;;;;;;14.54;46.30;101116.70;1673310;85;21007;-56
2021/10/15 07:33:27;;;;;;;22.25;14.55;;;;;;;14.43;46.50;101109.39;1675776;85;21008;-56
2021/10/15 07:35:53;;;;;;;22.58;14.85;;;;;;;14.40;47.10;101112.54;1674970;85;21054;-57
2021/10/15 07:38:20;;;;;;;20.15;12.65;;;;;;;14.43;47.05;101112.59;1677749;85;21174;-57
2021/10/15 07:40:47;;;;;;;21.00;13.43;;;;;;;14.46;46.98;101109.47;1675004;85;21568;-56
2021/10/15 07:43:13;;;;;;;22.98;13.65;;;;;;;14.49;46.83;101108.48;1672364;85;20991;-57
2021/10/15 07:45:40;;;;;;;20.17;13.53;;;;;;;14.52;46.79;101101.81;1675432;85;20956;-56
2021/10/15 07:48:07;;;;;;;21.55;13.75;;;;;;;14.53;47.27;101109.68;1675116;85;21018;-57
2021/10/15 07:50:33;;;;;;;20.80;14.45;;;;;;;14.59;47.07;101096.31;1674386;85;21525;-56
2021/10/15 07:52:59;;;;;;;19.90;13.35;;;;;;;14.61;46.66;101098.28;1673021;85;21007;-56
2021/10/15 07:55:26;;;;;;;20.43;13.35;;;;;;;14.62;46.42;101098.59;1675033;85;20975;-56
2021/10/15 07:57:52;;;;;;;18.92;12.68;;;;;;;14.62;46.90;101098.59;1674316;85;21588;-57
2021/10/15 08:00:19;;;;;;;21.00;11.97;;;;;;;14.67;46.60;101104.14;1675172;85;21014;-58
2021/10/15 08:02:46;;;;;;;16.02;11.30;;;;;;;14.70;46.07;101102.34;1677247;85;21139;-58
2021/10/15 08:05:13;;;;;;;19.27;12.03;;;;;;;14.73;45.88;101101.06;1674083;85;21521;-59
2021/10/15 08:07:41;;;;;;;16.10;10.20;;;;;;;14.69;46.03;101101.52;1675781;85;21012;-57
2021/10/15 08:10:10;;;;;;;18.05;11.00;;;;;;;14.70;45.31;101100.98;1676899;85;21589;-58
2021/10/15 08:12:39;;;;;;;15.80;10.75;;;;;;;14.70;45.79;101102.34;1675276;85;21077;-57
2021/10/15 08:15:09;;;;;;;15.55;9.85;;;;;;;14.77;45.73;101103.61;1675474;85;21178;-56
2021/10/15 08:17:37;;;;;;;16.52;9.85;;;;;;;14.79;44.47;101100.14;1675352;85;20968;-57
2021/10/15 08:20:05;;;;;;;14.80;10.68;;;;;;;14.67;44.18;101099.56;1674108;85;20920;-56
2021/10/15 08:22:33;;;;;;;16.02;10.32;;;;;;;14.56;45.11;101100.31;1676295;85;21004;-57
2021/10/15 08:24:59;;;;;;;15.98;10.43;;;;;;;14.54;44.86;101099.70;1674838;85;21035;-56
2021/10/15 08:27:26;;;;;;;13.22;9.90;;;;;;;14.56;45.23;101097.62;1675511;85;21153;-58
2021/10/15 08:29:52;;;;;;;20.77;12.58;;;;;;;14.60;45.48;101092.58;1674716;85;20948;-56
2021/10/15 08:32:19;;;;;;;16.50;11.57;;;;;;;14.65;45.15;101098.13;1674634;85;21042;-57
2021/10/15 08:34:45;;;;;;;19.87;12.00;;;;;;;14.68;45.62;101084.21;1676060;85;21027;-55
2021/10/15 08:37:12;;;;;;;16.07;11.28;;;;;;;14.71;45.77;101091.31;1675106;85;20979;-58
2021/10/15 08:39:38;;;;;;;20.37;12.23;;;;;;;14.79;45.03;101085.30;1674185;85;21817;-56
2021/10/15 08:42:05;;;;;;;16.87;11.18;;;;;;;14.83;44.91;101085.15;1673302;85;20924;-57
2021/10/15 08:44:42;;;;;;;18.85;11.25;;;;;;;14.85;44.17;101087.89;1673071;85;20983;-57
2021/10/15 08:47:11;;;;;;;18.82;12.03;;;;;;;14.85;44.20;101085.19;1679358;85;21035;-56
2021/10/15 08:49:38;;;;;;;17.02;11.45;;;;;;;14.87;44.52;101087.16;1648219;85;20916;-57
2021/10/15 08:52:05;;;;;;;15.78;10.55;;;;;;;14.87;44.62;101079.59;1674596;85;21134;-57
2021/10/15 08:54:32;;;;;;;14.93;9.80;;;;;;;14.88;44.87;101084.77;1676658;85;20944;-57
2021/10/15 08:57:00;;;;;;;12.50;8.93;;;;;;;14.91;44.63;101079.95;1674954;85;21071;-57
2021/10/15 08:59:43;;;;;;;12.20;9.00;;;;;;;14.96;43.54;101079.56;1673000;85;21035;-56
2021/10/15 09:02:21;;;;;;;15.28;9.08;;;;;;;15.02;43.13;101085.38;1673983;85;21031;-57
2021/10/15 09:04:54;;;;;;;13.98;10.00;;;;;;;15.04;43.13;101078.40;1673430;85;21490;-57
2021/10/15 09:07:23;;;;;;;17.48;10.13;;;;;;;15.04;43.30;101088.66;1675302;85;21509;-57
2021/10/15 09:10:16;;;;;;;13.03;9.30;;;;;;;15.07;42.02;101083.34;1675405;85;21148;-57
2021/10/15 09:12:43;;;;;;;15.53;8.00;;;;;;;15.01;42.05;101081.56;1656744;85;20976;-58
2021/10/15 09:15:11;;;;;;;;;;;;;;;14.94;42.74;101078.13;1676567;85;21003;-58
2021/10/15 09:17:54;;;;;;;5.65;4.30;;;;;;;14.94;41.11;101071.38;1677018;85;21811;-57
2021/10/15 09:20:34;;;;;;;6.85;4.90;;;;;;;14.92;40.54;101069.45;1674074;85;21011;-60
2021/10/15 09:23:01;;;;;;;11.10;5.47;;;;;;;14.89;40.57;101069.38;1673901;85;20971;-58
2021/10/15 09:25:34;;;;;;;7.70;5.37;;;;;;;14.87;40.75;101066.09;1675836;85;20971;-57
2021/10/15 09:28:01;;;;;;;8.48;4.45;;;;;;;14.86;40.87;101063.09;1675436;85;21078;-56
2021/10/15 09:30:31;;;;;;;8.25;5.17;;;;;;;14.84;40.62;101061.13;1678185;85;21179;-56
2021/10/15 09:33:01;;;;;;;6.50;4.05;;;;;;;14.83;38.77;101063.02;1674089;85;20900;-57
2021/10/15 09:35:30;;;;;;;5.70;4.20;;;;;;;14.78;39.61;101056.66;1675674;85;21008;-56
2021/10/15 09:38:07;;;;;;;5.40;3.42;;;;;;;14.78;41.14;101055.31;1676468;85;21052;-58
2021/10/15 09:40:45;;;;;;;5.35;3.50;;;;;;;14.83;40.94;101053.58;1675406;85;20934;-58
2021/10/15 09:43:13;;;;;;;;;;;;;;;14.89;40.10;101051.30;1677841;85;21839;-56
2021/10/15 09:45:47;;;;;;;6.03;4.50;;;;;;;14.93;38.98;101047.63;1675364;85;20525;-56
2021/10/15 09:48:26;;;;;;;5.22;3.62;;;;;;;14.94;39.03;101045.20;1674643;85;20975;-59
2021/10/15 09:51:19;;;;;;;6.42;3.65;;;;;;;14.95;39.74;101044.70;1677512;85;21019;-59
2021/10/15 09:54:18;;;;;;;5.58;3.77;;;;;;;14.94;38.89;101052.48;1676536;85;21494;-57
2021/10/15 09:56:52;;;;;;;5.20;3.35;;;;;;;14.93;38.54;101050.83;1675435;85;21138;-58
2021/10/15 09:59:19;;;;;;;5.80;3.55;;;;;;;14.94;38.54;101043.05;1675083;85;20932;-58
2021/10/15 10:01:45;;;;;;;6.90;4.00;;;;;;;14.95;38.72;101040.65;1675348;85;21019;-58
2021/10/15 10:04:12;;;;;;;6.00;3.75;;;;;;;14.93;37.96;101043.58;1675555;85;21593;-57
2021/10/15 10:06:39;;;;;;;5.50;3.87;;;;;;;14.92;37.96;101033.83;1674386;85;21595;-58
2021/10/15 10:09:07;;;;;;;5.80;3.98;;;;;;;14.91;38.74;101037.56;1673472;85;21102;-56
2021/10/15 10:11:34;;;;;;;6.05;3.50;;;;;;;14.90;38.56;101029.20;1675272;85;21817;-58
2021/10/15 10:14:01;;;;;;;5.62;3.92;;;;;;;14.84;38.53;101026.05;1674538;85;21043;-56
2021/10/15 10:16:29;;;;;;;7.92;3.27;;;;;;;14.83;37.99;101025.23;1675170;85;21036;-60
2021/10/15 10:18:59;;;;;;;5.15;3.72;;;;;;;14.82;37.26;101020.06;1676922;85;21077;-56
2021/10/15 10:21:31;;;;;;;6.30;3.37;;;;;;;14.81;37.89;101024.66;1674062;85;21862;-56
2021/10/15 10:24:10;;;;;;;10.40;4.17;;;;;;;14.83;37.99;101013.09;1675805;85;21470;-55
2021/10/15 10:26:49;;;;;;;5.47;3.67;;;;;;;14.83;38.99;101009.03;1674005;85;21015;-56
2021/10/15 10:29:15;;;;;;;4.08;3.05;;;;;;;14.84;38.08;101012.55;1675187;85;21023;-56
2021/10/15 10:31:42;;;;;;;4.45;3.02;;;;;;;14.83;38.22;101006.34;1651557;85;21130;-56
2021/10/15 10:34:15;;;;;;;9.00;3.58;;;;;;;14.87;38.99;100999.97;1648191;85;21059;-56
2021/10/15 10:36:42;;;;;;;5.90;3.65;;;;;;;14.92;38.19;100995.22;1673440;85;21417;-55
2021/10/15 10:39:26;;;;;;;4.22;3.27;;;;;;;14.93;38.19;100993.64;1673591;85;21507;-57
2021/10/15 10:42:04;;;;;;;5.12;2.80;;;;;;;14.94;37.05;100989.86;1678042;85;21568;-56
2021/10/15 10:44:32;;;;;;;5.60;2.87;;;;;;;14.93;37.84;100989.59;1674872;85;21647;-57
2021/10/15 10:47:17;;;;;;;6.72;3.52;;;;;;;14.88;37.13;100986.75;1672957;85;21187;-56
2021/10/15 10:50:05;;;;;;;4.22;3.35;;;;;;;14.81;37.04;100987.38;1675091;85;20996;-56
2021/10/15 10:52:44;;;;;;;4.78;3.30;;;;;;;14.76;36.91;100984.02;1674938;85;20964;-57
2021/10/15 10:55:44;;;;;;;3.70;2.85;;;;;;;14.74;37.26;100979.91;1674866;85;21131;-56
2021/10/15 10:58:36;;;;;;;4.40;2.77;;;;;;;14.73;37.70;100977.73;1677458;85;21568;-57
2021/10/15 11:01:24;;;;;;;4.58;2.87;;;;;;;14.75;37.78;100976.16;1673644;85;21821;-57
2021/10/15 11:03:50;;;;;;;3.95;3.00;;;;;;;14.78;37.62;100979.73;1675004;85;21537;-55
2021/10/15 11:06:16;;;;;;;3.90;2.70;;;;;;;14.77;37.29;100966.78;1673531;85;21050;-56
2021/10/15 11:08:43;;;;;;;5.40;2.90;;;;;;;14.80;37.63;100964.16;1673606;85;21024;-56
2021/10/15 11:11:33;;;;;;;4.42;2.92;;;;;;;14.78;36.95;100964.90;1675306;85;21067;-55
2021/10/15 11:13:56;;;;;;;3.70;2.80;;;;;;;14.77;36.37;100958.69;1673354;85;21219;-57
2021/10/15 11:16:27;;;;;;;3.83;2.70;;;;;;;14.71;37.04;100960.44;1622469;86;21079;-54
2021/10/15 11:18:54;;;;;;;21.80;3.85;;;;;;;14.67;36.52;100955.73;1712942;82;20992;-56
2021/10/15 11:21:21;;;;;;;3.95;2.65;;;;;;;14.60;36.77;100954.97;1719008;82;20960;-56
2021/10/15 11:23:48;;;;;;;3.80;2.85;;;;;;;14.57;36.88;100958.14;1722507;82;20861;-55
2021/10/15 11:26:15;;;;;;;5.75;2.95;;;;;;;14.54;36.98;100961.58;1718748;82;21812;-56
2021/10/15 11:28:41;;;;;;;4.85;3.20;;;;;;;14.51;37.43;100959.34;1720036;82;20948;-57
2021/10/15 11:31:12;;;;;;;5.03;3.33;;;;;;;14.53;35.33;100960.45;1720034;82;20956;-56
2021/10/15 11:33:39;;;;;;;5.50;2.92;;;;;;;14.49;35.72;100956.06;1720537;82;21067;-56